ENRA/MQN METAR and TAF weather

Enter ICAO airport designator
Station Type Date Time Source
ENRA METAR 2018/07/21 14:20 UTC NOAA

ENRA 211420Z VRB03KT 9999 FEW050TCU 26/15 Q1005


Station Type Date Time Source
ENRA Decoded METAR 2018/07/21 14:20 UTC NOAA

Mo I Rana / Rossvoll, Norway (ENRA) 66-22N 014-18E 70M
Jul 21, 2018 - 10:20 AM EDT / 2018.07.21 1420 UTC
Wind: Variable at 3 MPH (3 KT):0
Visibility: greater than 7 mile(s):0
Sky conditions: mostly clear
Weather: Towering cumulus clouds observed
Temperature: 78 F (26 C)
Dew Point: 59 F (15 C)
Relative Humidity: 50%
Pressure (altimeter): 29.68 in. Hg (1005 hPa)
ob: ENRA 211420Z VRB03KT 9999 FEW050TCU 26/15 Q1005
cycle: 14

Station Type Date Time Source
ENRA TAF UTC NOAA

Error!


Example: see airport list